ENMS/MJF METAR and TAF weather

Enter ICAO airport designator
Station Type Date Time Source
ENMS METAR 2022/06/28 09:50 UTC NOAA

ENMS 280950Z 16011KT 110V200 CAVOK 29/13 Q1015 RMK WIND 412FT 13008KT


Station Type Date Time Source
ENMS Decoded METAR 2022/06/28 09:50 UTC NOAA

Mosjoen Kjaerstad, Norway (ENMS) 65-48N 013-08E
Jun 28, 2022 - 05:50 AM EDT / 2022.06.28 0950 UTC
Wind: from the SSE (160 degrees) at 13 MPH (11 KT) (direction variable):0
Visibility: greater than 7 mile(s):0
Temperature: 84 F (29 C)
Dew Point: 55 F (13 C)
Relative Humidity: 37%
Pressure (altimeter): 29.97 in. Hg (1015 hPa)
ob: ENMS 280950Z 16011KT 110V200 CAVOK 29/13 Q1015 RMK WIND 412FT 13008KT
cycle: 10

Station Type Date Time Source
ENMS TAF UTC NOAA

Error!

Example: see airport list